Time;durP1;ratioP1;P1;durP2;ratioP2;P2;SDS_P1;SDS_P2;PMS_P1;PMS_P2;Temp;Humidity;BMP_temperature;BMP_pressure;BME280_temperature;BME280_humidity;BME280_pressure;Samples;Min_cycle;Max_cycle;Signal;HPM_P1;HPM_P2
2023/02/04 00:00:22;;;;;;;2.77;2.17;;;8.00;98.00;;;;;;5093638;28;20877;-68
2023/02/04 00:02:49;;;;;;;2.53;2.00;;;7.90;98.00;;;;;;5093379;28;20962;-67
2023/02/04 00:05:17;;;;;;;2.53;1.87;;;8.00;98.00;;;;;;5093399;28;20472;-68
2023/02/04 00:07:47;;;;;;;3.77;1.80;;;8.10;98.00;;;;;;5093402;28;20962;-68
2023/02/04 00:10:14;;;;;;;2.20;1.70;;;8.10;98.00;;;;;;5093636;28;20454;-67
2023/02/04 00:12:41;;;;;;;2.30;1.73;;;8.10;98.00;;;;;;5093362;28;20450;-68
2023/02/04 00:15:09;;;;;;;1.70;1.60;;;8.10;98.00;;;;;;5075659;28;20529;-68
2023/02/04 00:17:36;;;;;;;2.93;2.27;;;8.10;98.00;;;;;;5093199;28;20498;-68
2023/02/04 00:20:04;;;;;;;2.23;2.07;;;8.00;98.00;;;;;;5093219;28;20849;-68
2023/02/04 00:22:31;;;;;;;2.43;1.83;;;8.00;98.00;;;;;;5092986;28;20470;-69
2023/02/04 00:25:00;;;;;;;4.20;2.00;;;8.00;98.00;;;;;;5092834;28;20943;-67
2023/02/04 00:27:27;;;;;;;2.13;1.63;;;8.10;98.00;;;;;;5093061;28;20638;-68
2023/02/04 00:29:55;;;;;;;3.03;1.97;;;8.10;98.00;;;;;;5092914;28;21005;-68
2023/02/04 00:32:22;;;;;;;2.20;1.73;;;8.10;98.00;;;;;;5091681;28;20539;-67
2023/02/04 00:34:49;;;;;;;1.87;1.63;;;8.10;98.00;;;;;;5092657;28;20463;-68
2023/02/04 00:37:16;;;;;;;1.63;1.30;;;8.00;98.00;;;;;;5092856;28;20466;-67
2023/02/04 00:39:43;;;;;;;3.03;1.57;;;8.10;98.00;;;;;;5092479;28;20473;-68
2023/02/04 00:42:12;;;;;;;5.10;1.70;;;8.10;98.00;;;;;;5092653;28;20466;-68
2023/02/04 00:44:39;;;;;;;2.83;1.67;;;8.10;98.00;;;;;;5092698;28;20469;-68
2023/02/04 00:47:06;;;;;;;1.50;1.30;;;8.00;98.00;;;;;;5092544;28;20693;-67
2023/02/04 00:49:34;;;;;;;2.73;1.87;;;8.10;98.00;;;;;;5092392;28;20454;-69
2023/02/04 00:52:02;;;;;;;2.33;1.37;;;8.10;98.00;;;;;;5092445;28;20461;-68
2023/02/04 00:54:29;;;;;;;3.53;2.17;;;8.10;98.00;;;;;;5092328;28;20456;-68
2023/02/04 00:56:56;;;;;;;2.23;1.80;;;8.00;98.00;;;;;;5092741;28;20451;-68
2023/02/04 00:59:25;;;;;;;3.03;1.80;;;8.00;98.00;;;;;;5092566;28;20449;-68
2023/02/04 01:01:53;;;;;;;2.27;1.77;;;7.90;98.00;;;;;;5090918;28;20460;-68
2023/02/04 01:04:20;;;;;;;2.37;1.50;;;7.90;98.00;;;;;;5092386;28;20480;-68
2023/02/04 01:06:47;;;;;;;2.43;1.90;;;8.00;98.00;;;;;;5091922;28;20527;-69
2023/02/04 01:09:17;;;;;;;2.57;1.87;;;7.90;98.00;;;;;;5092647;28;20976;-68
2023/02/04 01:11:44;;;;;;;2.33;1.77;;;7.90;98.00;;;;;;5093499;28;20457;-68
2023/02/04 01:14:11;;;;;;;1.57;1.53;;;7.90;98.00;;;;;;5092938;28;20464;-67
2023/02/04 01:16:39;;;;;;;1.90;1.50;;;8.00;98.00;;;;;;5091980;28;20508;-69
2023/02/04 01:19:06;;;;;;;1.60;1.50;;;8.00;98.00;;;;;;5092224;28;20461;-68
2023/02/04 01:21:34;;;;;;;2.13;1.57;;;8.00;98.00;;;;;;5091867;28;20483;-68
2023/02/04 01:24:01;;;;;;;2.60;1.67;;;8.00;98.00;;;;;;5092102;28;20807;-68
2023/02/04 01:26:29;;;;;;;2.17;1.60;;;8.10;98.00;;;;;;5092097;28;20952;-68
2023/02/04 01:28:56;;;;;;;1.93;1.50;;;8.00;98.00;;;;;;5090549;28;20873;-69
2023/02/04 01:31:25;;;;;;;3.10;1.97;;;8.00;98.00;;;;;;5091832;28;20462;-68
2023/02/04 01:33:54;;;;;;;1.70;1.40;;;8.10;98.00;;;;;;5091823;28;20567;-68
2023/02/04 01:36:21;;;;;;;1.83;1.67;;;8.10;98.00;;;;;;5091648;28;20465;-68
2023/02/04 01:38:48;;;;;;;3.70;1.57;;;8.10;98.00;;;;;;5091559;28;20454;-68
2023/02/04 01:41:17;;;;;;;2.37;1.50;;;8.00;98.00;;;;;;5090289;28;20876;-68
2023/02/04 01:43:45;;;;;;;1.60;1.53;;;8.10;98.00;;;;;;5091733;28;20463;-68
2023/02/04 01:46:12;;;;;;;1.50;1.30;;;8.10;98.00;;;;;;5090125;28;20462;-67
2023/02/04 01:48:42;;;;;;;3.17;1.20;;;8.10;98.00;;;;;;5091305;28;20452;-68
2023/02/04 01:51:13;;;;;;;1.80;1.40;;;8.10;98.00;;;;;;5091524;28;20459;-69
2023/02/04 01:53:41;;;;;;;1.43;1.23;;;8.10;98.00;;;;;;5091377;28;20978;-68
2023/02/04 01:56:17;;;;;;;2.07;1.50;;;8.10;98.00;;;;;;5091492;28;20446;-68
2023/02/04 01:58:44;;;;;;;1.63;1.50;;;8.10;98.00;;;;;;5091246;28;20490;-69
2023/02/04 02:01:14;;;;;;;1.37;1.20;;;8.10;98.00;;;;;;5091328;28;20487;-68
2023/02/04 02:03:41;;;;;;;1.30;1.30;;;8.20;98.00;;;;;;5091290;28;20462;-68
2023/02/04 02:06:11;;;;;;;2.50;2.20;;;8.20;98.00;;;;;;5091367;28;20517;-67
2023/02/04 02:08:38;;;;;;;1.60;1.23;;;8.10;98.00;;;;;;5091257;28;20460;-67
2023/02/04 02:11:08;;;;;;;1.67;1.20;;;8.20;98.00;;;;;;5091452;28;20953;-68
2023/02/04 02:13:35;;;;;;;2.87;1.70;;;8.10;98.00;;;;;;5091290;28;20982;-68
2023/02/04 02:16:02;;;;;;;3.27;2.17;;;8.10;98.00;;;;;;5091261;28;20477;-69
2023/02/04 02:18:29;;;;;;;1.60;1.40;;;8.20;98.00;;;;;;5094804;28;20473;-69
2023/02/04 02:20:59;;;;;;;1.53;1.37;;;8.10;98.00;;;;;;5095270;28;20485;-68
2023/02/04 02:23:47;;;;;;;4.10;1.77;;;8.10;98.00;;;;;;5095181;28;20559;-67
2023/02/04 02:26:15;;;;;;;1.20;1.10;;;8.10;98.00;;;;;;5095337;28;20462;-68
2023/02/04 02:28:46;;;;;;;2.70;1.60;;;8.10;98.00;;;;;;5095149;28;20515;-68
2023/02/04 02:31:13;;;;;;;1.53;1.33;;;8.10;98.00;;;;;;5095263;28;20959;-68
2023/02/04 02:33:41;;;;;;;1.73;1.10;;;8.10;98.00;;;;;;5094914;28;20462;-68
2023/02/04 02:36:09;;;;;;;1.20;1.10;;;8.10;98.00;;;;;;5094967;28;20890;-67
2023/02/04 02:38:36;;;;;;;1.50;1.30;;;8.10;98.00;;;;;;5095039;28;20457;-67
2023/02/04 02:41:07;;;;;;;1.53;1.10;;;8.00;98.00;;;;;;5094736;28;20485;-68
2023/02/04 02:43:36;;;;;;;2.17;1.60;;;8.10;98.00;;;;;;5094950;28;20544;-68
2023/02/04 02:46:04;;;;;;;2.00;1.47;;;8.20;98.00;;;;;;5094825;28;20826;-67
2023/02/04 02:48:31;;;;;;;2.17;1.40;;;8.10;98.00;;;;;;5094962;28;20555;-68
2023/02/04 02:51:00;;;;;;;2.63;1.60;;;8.10;98.00;;;;;;5094964;28;20467;-67
2023/02/04 02:53:28;;;;;;;1.50;1.33;;;8.00;98.00;;;;;;5094840;28;20461;-69
2023/02/04 02:55:55;;;;;;;1.40;1.20;;;8.00;98.00;;;;;;5094599;28;20472;-68
2023/02/04 02:58:28;;;;;;;2.23;1.50;;;7.90;98.00;;;;;;5094797;28;20462;-68
2023/02/04 03:00:56;;;;;;;2.03;1.80;;;7.90;98.00;;;;;;5094598;28;20966;-67
2023/02/04 03:03:26;;;;;;;1.40;1.23;;;7.90;98.00;;;;;;5094824;28;20458;-68
2023/02/04 03:05:58;;;;;;;1.37;1.30;;;7.90;98.00;;;;;;5094698;28;20860;-68
2023/02/04 03:08:25;;;;;;;1.70;1.40;;;8.00;98.00;;;;;;5094747;28;20468;-68
2023/02/04 03:10:52;;;;;;;3.10;1.37;;;8.00;98.00;;;;;;5094351;28;20911;-68
2023/02/04 03:13:29;;;;;;;1.87;1.27;;;8.10;98.00;;;;;;5094422;28;20457;-69
2023/02/04 03:15:58;;;;;;;1.30;1.20;;;8.10;98.00;;;;;;5094281;28;20468;-68
2023/02/04 03:18:25;;;;;;;1.80;1.47;;;8.00;98.00;;;;;;5094275;28;20458;-68
2023/02/04 03:20:54;;;;;;;2.80;1.70;;;7.90;98.00;;;;;;5094127;28;20483;-68
2023/02/04 03:23:21;;;;;;;1.40;1.27;;;7.90;98.00;;;;;;5094105;28;20484;-68
2023/02/04 03:25:48;;;;;;;1.63;1.27;;;7.90;98.00;;;;;;5094274;28;20504;-68
2023/02/04 03:28:15;;;;;;;2.00;1.50;;;7.90;98.00;;;;;;5094154;28;20462;-68
2023/02/04 03:30:43;;;;;;;1.37;1.30;;;8.00;98.00;;;;;;5094128;28;20470;-68
2023/02/04 03:33:11;;;;;;;1.30;1.20;;;7.90;98.00;;;;;;5092844;28;20680;-68
2023/02/04 03:35:38;;;;;;;1.63;1.30;;;7.90;98.00;;;;;;5093890;28;20465;-68
2023/02/04 03:38:05;;;;;;;2.73;1.40;;;7.90;98.00;;;;;;5093674;28;20453;-70
2023/02/04 03:40:33;;;;;;;1.20;1.13;;;7.90;98.00;;;;;;5093885;28;20469;-68
2023/02/04 03:43:00;;;;;;;1.97;1.40;;;7.90;98.00;;;;;;5094008;28;20795;-67
2023/02/04 03:45:27;;;;;;;1.50;1.27;;;8.00;98.00;;;;;;5094078;28;20466;-69
2023/02/04 03:47:55;;;;;;;1.43;1.30;;;8.10;98.00;;;;;;5093769;28;20452;-68
2023/02/04 03:50:24;;;;;;;1.33;1.23;;;8.10;98.00;;;;;;5092548;28;20454;-67
2023/02/04 03:52:52;;;;;;;1.50;1.30;;;8.10;98.00;;;;;;5093362;28;20454;-67
2023/02/04 03:55:20;;;;;;;3.47;1.60;;;8.20;98.00;;;;;;5092695;28;21002;-68
2023/02/04 03:57:48;;;;;;;1.83;1.10;;;8.20;98.00;;;;;;5093287;28;20504;-68
2023/02/04 04:00:15;;;;;;;2.63;1.30;;;8.20;98.00;;;;;;5093719;28;20507;-68
2023/02/04 04:02:43;;;;;;;2.03;1.23;;;8.10;98.00;;;;;;5093348;28;20489;-69
2023/02/04 04:05:10;;;;;;;1.80;1.47;;;8.10;98.00;;;;;;5093554;28;20465;-68
2023/02/04 04:07:39;;;;;;;1.97;1.40;;;8.10;98.00;;;;;;5093562;28;20465;-67
2023/02/04 04:10:11;;;;;;;1.87;1.30;;;8.00;98.00;;;;;;5089563;28;20457;-67
2023/02/04 04:12:38;;;;;;;2.50;1.30;;;8.00;98.00;;;;;;5073153;28;20937;-68
2023/02/04 04:15:06;;;;;;;1.53;1.23;;;8.00;98.00;;;;;;5072911;28;20458;-68
2023/02/04 04:17:33;;;;;;;1.30;1.20;;;8.10;98.00;;;;;;5072897;28;20460;-68
2023/02/04 04:20:00;;;;;;;1.90;1.30;;;8.00;98.00;;;;;;5072783;28;20462;-68
2023/02/04 04:22:27;;;;;;;3.00;1.80;;;7.90;98.00;;;;;;5072723;28;20512;-68
2023/02/04 04:24:56;;;;;;;2.40;1.47;;;7.90;98.00;;;;;;5072756;28;20514;-67
2023/02/04 04:27:23;;;;;;;1.47;1.20;;;7.80;98.00;;;;;;5072801;28;20898;-67
2023/02/04 04:29:50;;;;;;;1.67;1.20;;;7.70;98.00;;;;;;5072634;28;20527;-68
2023/02/04 04:32:17;;;;;;;1.50;1.40;;;7.70;98.00;;;;;;5072715;28;20447;-68
2023/02/04 04:34:44;;;;;;;1.60;1.33;;;7.60;98.00;;;;;;5072435;28;20462;-68
2023/02/04 04:37:11;;;;;;;1.40;1.20;;;7.60;98.00;;;;;;5072425;28;20463;-67
2023/02/04 04:39:38;;;;;;;13.43;2.10;;;7.60;98.00;;;;;;5072080;28;20462;-68
2023/02/04 04:42:08;;;;;;;2.00;1.17;;;7.60;98.00;;;;;;5072317;28;20494;-67
2023/02/04 04:44:35;;;;;;;2.07;1.50;;;7.70;98.00;;;;;;5072330;28;20464;-68
2023/02/04 04:47:02;;;;;;;1.90;1.23;;;7.80;98.00;;;;;;5072036;28;20977;-67
2023/02/04 04:49:30;;;;;;;2.50;1.43;;;7.80;98.00;;;;;;5072264;28;20471;-68
2023/02/04 04:51:57;;;;;;;2.13;1.57;;;7.80;98.00;;;;;;5071011;28;20461;-67
2023/02/04 04:54:24;;;;;;;1.37;1.13;;;7.90;98.00;;;;;;5072175;28;20453;-68
2023/02/04 04:56:51;;;;;;;1.50;1.50;;;7.90;98.00;;;;;;5072327;28;20750;-67
2023/02/04 04:59:20;;;;;;;2.37;1.57;;;7.90;98.00;;;;;;5072117;28;20446;-68
2023/02/04 05:01:47;;;;;;;1.97;1.40;;;7.90;98.00;;;;;;5072038;28;20493;-68
2023/02/04 05:04:14;;;;;;;1.80;1.40;;;7.80;98.00;;;;;;5072387;28;20484;-68
2023/02/04 05:06:41;;;;;;;1.63;1.40;;;7.70;98.00;;;;;;5071026;28;20963;-67
2023/02/04 05:09:09;;;;;;;2.03;1.57;;;7.70;98.00;;;;;;5072032;28;20823;-67
2023/02/04 05:11:37;;;;;;;2.03;1.60;;;7.80;98.00;;;;;;5071889;28;20544;-69
2023/02/04 05:14:04;;;;;;;1.50;1.30;;;7.80;98.00;;;;;;5071776;28;21046;-69
2023/02/04 05:16:33;;;;;;;1.40;1.30;;;7.70;98.00;;;;;;5071930;28;20459;-68
2023/02/04 05:19:00;;;;;;;2.43;1.60;;;7.60;98.00;;;;;;5071696;28;20984;-68
2023/02/04 05:21:27;;;;;;;3.60;1.50;;;7.50;98.00;;;;;;5071466;28;21000;-68
2023/02/04 05:23:54;;;;;;;2.07;1.70;;;7.60;98.00;;;;;;5070285;28;20452;-68
2023/02/04 05:26:21;;;;;;;2.80;1.70;;;7.80;98.00;;;;;;5071731;28;20457;-69
2023/02/04 05:28:49;;;;;;;1.80;1.43;;;7.80;98.00;;;;;;5071492;28;20469;-68
2023/02/04 05:31:17;;;;;;;1.80;1.67;;;7.80;98.00;;;;;;5071579;28;20462;-68
2023/02/04 05:33:45;;;;;;;2.30;1.30;;;7.80;98.00;;;;;;5070288;28;20835;-68
2023/02/04 05:36:12;;;;;;;2.00;1.63;;;7.70;98.00;;;;;;5071202;28;20465;-68
2023/02/04 05:38:39;;;;;;;1.40;1.30;;;7.50;98.00;;;;;;5071577;28;20469;-68
2023/02/04 05:41:06;;;;;;;1.33;1.20;;;7.50;98.00;;;;;;5071318;28;20968;-68
2023/02/04 05:43:35;;;;;;;9.40;2.30;;;7.50;98.00;;;;;;5071508;28;20818;-68
2023/02/04 05:46:03;;;;;;;1.90;1.50;;;7.40;98.00;;;;;;5071808;28;20491;-67
2023/02/04 05:48:33;;;;;;;4.83;1.83;;;7.40;98.00;;;;;;5071559;28;20458;-69
2023/02/04 05:51:06;;;;;;;2.07;1.60;;;7.40;98.00;;;;;;5071208;28;20792;-68
2023/02/04 05:53:34;;;;;;;2.17;1.40;;;7.40;98.00;;;;;;5071849;28;20828;-68
2023/02/04 05:56:01;;;;;;;1.60;1.43;;;7.40;98.00;;;;;;5071635;28;20460;-68
2023/02/04 05:58:32;;;;;;;1.73;1.20;;;7.50;98.00;;;;;;5071986;28;20460;-68
2023/02/04 06:01:00;;;;;;;2.17;1.40;;;7.40;98.00;;;;;;5071995;28;20459;-67
2023/02/04 06:03:27;;;;;;;1.50;1.33;;;7.30;98.00;;;;;;5071561;28;20538;-68
2023/02/04 06:05:54;;;;;;;1.20;1.10;;;7.30;98.00;;;;;;5071239;28;20453;-67
2023/02/04 06:08:25;;;;;;;1.53;1.47;;;7.40;98.00;;;;;;5071345;28;20466;-68
2023/02/04 06:10:52;;;;;;;1.97;1.20;;;7.30;98.00;;;;;;5070207;28;21032;-68
2023/02/04 06:13:19;;;;;;;1.87;1.60;;;7.20;98.00;;;;;;5071529;28;20458;-69
2023/02/04 06:15:47;;;;;;;2.20;1.90;;;7.10;98.00;;;;;;5071029;28;20458;-68
2023/02/04 06:18:15;;;;;;;4.60;2.37;;;7.30;98.00;;;;;;5071833;28;20479;-67
2023/02/04 06:20:42;;;;;;;1.40;1.27;;;7.50;98.00;;;;;;5071787;28;20463;-68
2023/02/04 06:23:10;;;;;;;6.67;1.50;;;7.60;98.00;;;;;;5071410;28;20487;-68
2023/02/04 06:25:39;;;;;;;1.40;1.30;;;7.70;98.00;;;;;;5071704;28;20459;-68
2023/02/04 06:28:06;;;;;;;2.30;1.40;;;7.70;98.00;;;;;;5070913;28;20530;-68
2023/02/04 06:30:33;;;;;;;2.03;1.53;;;7.70;98.00;;;;;;5070786;28;20481;-69
2023/02/04 06:33:00;;;;;;;1.17;1.13;;;7.70;98.00;;;;;;5070869;28;20458;-68
2023/02/04 06:35:27;;;;;;;2.70;1.53;;;7.80;98.00;;;;;;5070687;28;20481;-69
2023/02/04 06:37:54;;;;;;;2.50;1.83;;;7.60;98.00;;;;;;5070992;28;20890;-67
2023/02/04 06:40:21;;;;;;;2.20;1.63;;;7.50;98.00;;;;;;5070860;28;20463;-67
2023/02/04 06:42:53;;;;;;;2.50;1.60;;;7.50;98.00;;;;;;5070985;28;20477;-68
2023/02/04 06:45:20;;;;;;;1.43;1.23;;;7.40;98.00;;;;;;5070846;28;20458;-68
2023/02/04 06:47:47;;;;;;;1.53;1.47;;;7.40;98.00;;;;;;5070924;28;20468;-67
2023/02/04 06:50:17;;;;;;;2.43;1.70;;;7.50;98.00;;;;;;5069546;28;20955;-67
2023/02/04 06:52:46;;;;;;;2.50;1.67;;;7.50;98.00;;;;;;5070824;28;20539;-68
2023/02/04 06:55:14;;;;;;;2.23;1.40;;;7.40;98.00;;;;;;5069843;28;20467;-67
2023/02/04 06:57:41;;;;;;;4.83;2.17;;;7.60;98.00;;;;;;5071006;28;20960;-67
2023/02/04 07:00:12;;;;;;;1.73;1.30;;;7.70;98.00;;;;;;5070795;28;20461;-67
2023/02/04 07:02:41;;;;;;;5.90;2.30;;;7.80;98.00;;;;;;5071093;28;20487;-74
2023/02/04 07:05:09;;;;;;;2.10;1.43;;;7.80;98.00;;;;;;5074562;28;20481;-74
2023/02/04 07:07:36;;;;;;;1.90;1.40;;;7.70;98.00;;;;;;5074420;28;20818;-74
2023/02/04 07:10:03;;;;;;;3.73;1.47;;;7.70;98.00;;;;;;5074546;28;20461;-74
2023/02/04 07:12:31;;;;;;;1.40;1.30;;;7.60;98.00;;;;;;5074197;28;20465;-74
2023/02/04 07:14:58;;;;;;;2.03;1.60;;;7.60;98.00;;;;;;5074138;28;20485;-74
2023/02/04 07:17:26;;;;;;;1.90;1.40;;;7.60;98.00;;;;;;5074130;28;20963;-74
2023/02/04 07:19:53;;;;;;;5.47;2.10;;;7.70;98.00;;;;;;5073958;28;20461;-74
2023/02/04 07:22:21;;;;;;;4.00;2.07;;;7.70;98.00;;;;;;5073924;28;20486;-74
2023/02/04 07:24:48;;;;;;;2.57;1.73;;;7.70;98.00;;;;;;5073966;28;20488;-74
2023/02/04 07:27:21;;;;;;;2.20;1.60;;;7.70;98.00;;;;;;5073800;28;20450;-74
2023/02/04 07:29:49;;;;;;;1.73;1.53;;;7.80;98.00;;;;;;5073887;28;20946;-74
2023/02/04 07:32:17;;;;;;;1.40;1.30;;;7.80;98.00;;;;;;5073754;28;20463;-73
2023/02/04 07:34:46;;;;;;;1.67;1.47;;;7.80;98.00;;;;;;5073731;28;20456;-74
2023/02/04 07:37:14;;;;;;;2.80;2.20;;;7.80;98.00;;;;;;5073718;28;20513;-74
2023/02/04 07:39:41;;;;;;;1.53;1.30;;;7.70;98.00;;;;;;5073703;28;20451;-73
2023/02/04 07:42:08;;;;;;;4.70;2.50;;;7.70;98.00;;;;;;5073506;28;20491;-73
2023/02/04 07:44:36;;;;;;;1.33;1.27;;;7.70;98.00;;;;;;5073693;28;20469;-74
2023/02/04 07:47:03;;;;;;;2.30;1.63;;;7.80;98.00;;;;;;5073647;28;20458;-74
2023/02/04 07:49:30;;;;;;;2.83;1.80;;;7.80;98.00;;;;;;5073610;28;20460;-73
2023/02/04 07:51:59;;;;;;;2.60;1.60;;;7.70;98.00;;;;;;5073641;28;20461;-74
2023/02/04 07:54:26;;;;;;;3.33;1.53;;;7.70;98.00;;;;;;5072193;28;20469;-74
2023/02/04 07:56:53;;;;;;;1.73;1.70;;;7.60;98.00;;;;;;5072481;28;20466;-74
2023/02/04 07:59:20;;;;;;;2.60;1.83;;;7.60;98.00;;;;;;5073577;28;20465;-74
2023/02/04 08:01:50;;;;;;;4.30;1.60;;;7.60;98.00;;;;;;5073373;28;20991;-74
2023/02/04 08:04:17;;;;;;;2.23;1.40;;;7.50;98.00;;;;;;5073246;28;20462;-74
2023/02/04 08:06:47;;;;;;;2.07;1.60;;;7.50;98.00;;;;;;5073436;28;20464;-74
2023/02/04 08:09:15;;;;;;;2.20;1.53;;;7.50;98.00;;;;;;5073826;28;20465;-73
2023/02/04 08:11:42;;;;;;;4.30;1.90;;;7.50;98.00;;;;;;5073760;28;20458;-74
2023/02/04 08:14:10;;;;;;;1.80;1.50;;;7.40;98.00;;;;;;5073244;28;20455;-73
2023/02/04 08:16:37;;;;;;;5.80;1.67;;;7.60;98.00;;;;;;5073258;28;20460;-74
2023/02/04 08:19:04;;;;;;;2.00;1.30;;;7.50;98.00;;;;;;5073645;28;20457;-74
2023/02/04 08:21:31;;;;;;;2.70;1.40;;;7.60;98.00;;;;;;5073514;28;20471;-74
2023/02/04 08:23:58;;;;;;;4.07;1.77;;;7.60;98.00;;;;;;5073692;28;20577;-73
2023/02/04 08:26:27;;;;;;;3.27;1.63;;;7.70;98.00;;;;;;5073644;28;20939;-74
2023/02/04 08:29:01;;;;;;;2.37;1.50;;;7.80;98.00;;;;;;5073485;28;20466;-74
2023/02/04 08:31:29;;;;;;;3.07;1.80;;;7.70;98.00;;;;;;5073652;28;20458;-75
2023/02/04 08:33:57;;;;;;;3.63;1.83;;;7.70;98.00;;;;;;5073200;28;20466;-75
2023/02/04 08:36:24;;;;;;;1.80;1.43;;;7.60;98.00;;;;;;5073189;28;20474;-75
2023/02/04 08:38:51;;;;;;;2.00;1.43;;;7.60;98.00;;;;;;5073282;28;20449;-73
2023/02/04 08:41:18;;;;;;;8.63;1.83;;;7.60;98.00;;;;;;5073459;28;20820;-74
2023/02/04 08:43:47;;;;;;;2.80;1.50;;;7.50;98.00;;;;;;5073280;28;20978;-74
2023/02/04 08:46:14;;;;;;;10.20;1.57;;;7.40;98.00;;;;;;5073096;28;20464;-74
2023/02/04 08:48:41;;;;;;;3.27;1.70;;;7.50;98.00;;;;;;5073243;28;20827;-74
2023/02/04 08:51:08;;;;;;;3.03;1.60;;;7.60;98.00;;;;;;5073240;28;20525;-73
2023/02/04 08:53:39;;;;;;;3.67;2.00;;;7.80;98.00;;;;;;5072941;28;20492;-73
2023/02/04 08:56:07;;;;;;;2.87;1.80;;;7.80;98.00;;;;;;5073139;28;20499;-73
2023/02/04 08:58:38;;;;;;;2.90;1.90;;;7.70;98.00;;;;;;5072911;28;20456;-74
2023/02/04 09:01:07;;;;;;;3.43;2.30;;;7.80;98.00;;;;;;5073018;28;20456;-73
2023/02/04 09:03:34;;;;;;;5.07;2.40;;;7.90;98.00;;;;;;5078145;28;20480;-69
2023/02/04 09:06:01;;;;;;;2.67;1.40;;;8.00;98.00;;;;;;5091703;28;20996;-72
2023/02/04 09:08:28;;;;;;;9.53;2.57;;;9.00;98.00;;;;;;5092464;28;20468;-72
2023/02/04 09:10:56;;;;;;;2.90;2.10;;;9.40;98.00;;;;;;5092500;28;20460;-73
2023/02/04 09:13:23;;;;;;;4.20;1.90;;;9.30;98.00;;;;;;5092354;28;20483;-72
2023/02/04 09:15:51;;;;;;;3.87;2.30;;;9.30;98.00;;;;;;5092292;28;21081;-72
2023/02/04 09:18:24;;;;;;;3.93;2.37;;;9.30;98.00;;;;;;5092727;28;20487;-72
2023/02/04 09:20:52;;;;;;;3.13;1.73;;;9.10;98.00;;;;;;5092707;28;20549;-72
2023/02/04 09:23:20;;;;;;;2.43;1.40;;;9.00;98.00;;;;;;5092657;28;20455;-73
2023/02/04 09:25:48;;;;;;;5.70;1.67;;;8.80;98.00;;;;;;5092558;28;20467;-71
2023/02/04 09:28:15;;;;;;;3.20;1.57;;;8.80;98.00;;;;;;5092358;28;20465;-72
2023/02/04 09:30:44;;;;;;;3.70;1.60;;;8.80;98.00;;;;;;5092851;28;20531;-72
2023/02/04 09:33:12;;;;;;;1.30;1.20;;;8.80;98.00;;;;;;5091259;28;20487;-72
2023/02/04 09:35:41;;;;;;;3.10;1.83;;;8.80;98.00;;;;;;5092240;28;20951;-73
2023/02/04 09:38:09;;;;;;;6.20;1.93;;;8.70;98.00;;;;;;5092710;28;20456;-73
2023/02/04 09:40:41;;;;;;;7.43;1.60;;;8.70;98.00;;;;;;5092567;28;20453;-73
2023/02/04 09:43:12;;;;;;;2.80;1.57;;;8.70;98.00;;;;;;5092431;28;20456;-73
2023/02/04 09:45:40;;;;;;;1.67;1.20;;;8.60;98.00;;;;;;5092379;28;20492;-72
2023/02/04 09:48:11;;;;;;;3.73;1.83;;;8.50;98.00;;;;;;5092376;28;20460;-73
2023/02/04 09:50:40;;;;;;;2.60;1.60;;;8.50;98.00;;;;;;5092549;28;20468;-72
2023/02/04 09:53:12;;;;;;;2.73;1.90;;;8.50;98.00;;;;;;5092178;28;20505;-72
2023/02/04 09:55:41;;;;;;;1.40;1.30;;;8.50;98.00;;;;;;5092533;28;20462;-72
2023/02/04 09:58:15;;;;;;;7.37;1.37;;;8.40;98.00;;;;;;5092291;28;20459;-73
2023/02/04 10:00:42;;;;;;;2.80;1.80;;;8.50;98.00;;;;;;5092033;28;20465;-72
2023/02/04 10:03:15;;;;;;;5.53;1.37;;;8.40;98.00;;;;;;5092177;28;20466;-72
2023/02/04 10:05:49;;;;;;;1.87;1.63;;;8.40;98.00;;;;;;5092029;28;20842;-72
2023/02/04 10:08:19;;;;;;;1.50;1.30;;;8.40;98.00;;;;;;5092145;28;20878;-72
2023/02/04 10:10:48;;;;;;;2.17;1.30;;;8.50;98.00;;;;;;5091825;28;20455;-71
2023/02/04 10:13:18;;;;;;;6.33;2.23;;;8.50;98.00;;;;;;5091699;28;20484;-72
2023/02/04 10:15:46;;;;;;;2.07;1.30;;;8.50;98.00;;;;;;5091846;28;20486;-73
2023/02/04 10:18:20;;;;;;;5.23;1.70;;;8.60;98.00;;;;;;5091852;28;20874;-72
2023/02/04 10:20:48;;;;;;;1.67;1.30;;;8.70;98.00;;;;;;5091865;28;20797;-72
2023/02/04 10:23:15;;;;;;;5.00;2.03;;;8.80;98.00;;;;;;5091873;28;20461;-71
2023/02/04 10:25:43;;;;;;;2.70;1.83;;;8.90;98.00;;;;;;5091643;28;20469;-72
2023/02/04 10:28:10;;;;;;;1.80;1.50;;;9.00;98.00;;;;;;5091745;28;20464;-74
2023/02/04 10:30:42;;;;;;;1.70;1.53;;;9.00;98.00;;;;;;5091962;28;20479;-72
2023/02/04 10:33:15;;;;;;;1.80;1.80;;;9.00;98.00;;;;;;5091788;28;20961;-72
2023/02/04 10:35:50;;;;;;;1.80;1.53;;;8.90;98.00;;;;;;5091546;28;20459;-72
2023/02/04 10:38:17;;;;;;;5.00;2.83;;;8.90;98.00;;;;;;5093060;28;20853;-73
2023/02/04 10:40:45;;;;;;;1.90;1.50;;;9.00;98.00;;;;;;5096005;28;20784;-72
2023/02/04 10:43:15;;;;;;;4.30;1.90;;;9.00;98.00;;;;;;5095673;28;20466;-71
2023/02/04 10:45:46;;;;;;;3.57;1.90;;;9.00;98.00;;;;;;5095751;28;20458;-72
2023/02/04 10:48:17;;;;;;;4.60;1.50;;;9.00;98.00;;;;;;5095735;28;20458;-74
2023/02/04 10:50:45;;;;;;;2.33;1.77;;;9.00;98.00;;;;;;5094830;28;20819;-70
2023/02/04 10:56:02;;;;;;;3.73;1.40;;;9.00;98.00;;;;;;5095215;28;20451;-72
2023/02/04 10:58:31;;;;;;;5.20;1.50;;;8.90;98.00;;;;;;5089020;28;20525;-73
2023/02/04 11:01:00;;;;;;;1.80;1.33;;;8.80;98.00;;;;;;5083054;28;20461;-73
2023/02/04 11:03:29;;;;;;;3.93;1.60;;;8.80;98.00;;;;;;5074918;28;20866;-75
2023/02/04 11:06:00;;;;;;;2.70;1.53;;;8.90;98.00;;;;;;5078651;28;20467;-72
2023/02/04 11:08:32;;;;;;;2.13;1.40;;;8.90;98.00;;;;;;5078998;28;20451;-74
2023/02/04 11:11:00;;;;;;;4.10;2.67;;;8.80;98.00;;;;;;5074730;28;20461;-72
2023/02/04 11:13:40;;;;;;;1.30;1.00;;;8.80;98.00;;;;;;5073762;28;20515;-73
2023/02/04 11:16:12;;;;;;;1.27;1.20;;;8.70;98.00;;;;;;5085392;28;20456;-72
2023/02/04 11:18:48;;;;;;;5.80;2.03;;;8.70;98.00;;;;;;5080366;28;20456;-73
2023/02/04 11:21:24;;;;;;;6.70;3.50;;;8.70;98.00;;;;;;5074388;28;20981;-75
2023/02/04 11:24:04;;;;;;;7.40;2.50;;;8.70;98.00;;;;;;5074091;28;20464;-72
2023/02/04 11:26:34;;;;;;;1.70;1.50;;;8.70;98.00;;;;;;5074249;28;20502;-74
2023/02/04 11:29:28;;;;;;;2.40;2.03;;;8.70;98.00;;;;;;5075317;28;20485;-72
2023/02/04 11:32:02;;;;;;;1.53;1.40;;;8.70;98.00;;;;;;5076039;28;20458;-74
2023/02/04 11:34:46;;;;;;;1.80;1.50;;;8.60;98.00;;;;;;5073033;28;20916;-72
2023/02/04 11:37:35;;;;;;;4.00;1.90;;;8.70;98.00;;;;;;5077403;28;20471;-73
2023/02/04 11:40:20;;;;;;;2.27;1.40;;;8.60;98.00;;;;;;5075939;28;20463;-76
2023/02/04 11:42:48;;;;;;;2.53;1.87;;;8.60;98.00;;;;;;5074253;28;20460;-74
2023/02/04 11:45:20;;;;;;;5.23;1.50;;;8.50;98.00;;;;;;5074677;28;20790;-75
2023/02/04 11:47:47;;;;;;;1.70;1.40;;;8.50;98.00;;;;;;5073748;28;20458;-74
2023/02/04 11:50:21;;;;;;;4.30;1.30;;;8.60;98.00;;;;;;5073050;28;20459;-77
2023/02/04 11:52:50;;;;;;;5.47;1.40;;;8.70;98.00;;;;;;5073055;28;20784;-75
2023/02/04 11:55:19;;;;;;;2.83;1.70;;;8.80;98.00;;;;;;5074241;28;20533;-72
2023/02/04 11:57:51;;;;;;;2.47;1.70;;;8.90;98.00;;;;;;5073821;28;20454;-72
2023/02/04 12:00:21;;;;;;;2.60;1.57;;;8.90;98.00;;;;;;5071239;28;20513;-75
2023/02/04 12:02:49;;;;;;;3.10;2.47;;;8.80;98.00;;;;;;5073940;28;20460;-72
2023/02/04 12:05:19;;;;;;;2.40;1.63;;;8.80;98.00;;;;;;5073828;28;20467;-72
2023/02/04 12:07:48;;;;;;;2.60;1.77;;;8.90;98.00;;;;;;5073601;28;20463;-76
2023/02/04 12:10:25;;;;;;;11.33;1.90;;;9.00;98.00;;;;;;5073924;28;20451;-73
2023/02/04 12:12:56;;;;;;;2.37;1.70;;;9.00;98.00;;;;;;5072354;28;20836;-73
2023/02/04 12:15:28;;;;;;;2.37;1.53;;;9.20;98.00;;;;;;5073858;28;20483;-76
2023/02/04 12:18:03;;;;;;;2.23;1.50;;;9.30;98.00;;;;;;5072411;28;20456;-75
2023/02/04 12:20:31;;;;;;;1.40;1.27;;;9.40;98.00;;;;;;5072999;28;20462;-75
2023/02/04 12:22:58;;;;;;;1.90;1.60;;;9.60;98.00;;;;;;5073366;28;20499;-73
2023/02/04 12:25:26;;;;;;;4.17;1.70;;;10.20;98.00;;;;;;5077957;28;20455;-75
2023/02/04 12:27:54;;;;;;;2.33;1.80;;;10.90;98.00;;;;;;5081757;28;20464;-70
2023/02/04 12:30:22;;;;;;;3.10;1.40;;;11.30;98.00;;;;;;5077757;28;20825;-62
2023/02/04 12:32:49;;;;;;;1.80;1.43;;;11.30;98.00;;;;;;5073167;28;20463;-74
2023/02/04 12:35:17;;;;;;;3.57;1.93;;;11.50;98.00;;;;;;5073157;28;20479;-77
2023/02/04 12:37:44;;;;;;;2.53;1.60;;;11.50;98.00;;;;;;5073227;28;20464;-74
2023/02/04 12:40:16;;;;;;;6.20;1.60;;;11.50;98.00;;;;;;5073410;28;20473;-76
2023/02/04 12:42:45;;;;;;;1.70;1.70;;;11.50;98.00;;;;;;5073425;28;20528;-75
2023/02/04 12:45:13;;;;;;;1.80;1.20;;;11.40;98.00;;;;;;5072515;28;20455;-72
2023/02/04 12:47:40;;;;;;;1.53;1.40;;;11.30;98.00;;;;;;5072049;28;20449;-74
2023/02/04 12:50:08;;;;;;;2.43;1.30;;;10.90;98.00;;;;;;5072146;28;20453;-75
2023/02/04 12:52:37;;;;;;;1.50;1.40;;;10.80;98.00;;;;;;5072202;28;20468;-75
2023/02/04 12:55:08;;;;;;;2.80;2.00;;;10.80;98.00;;;;;;5072043;28;21071;-74
2023/02/04 12:57:35;;;;;;;2.73;1.50;;;10.70;98.00;;;;;;5072249;28;20464;-73
2023/02/04 13:00:06;;;;;;;8.03;1.93;;;10.60;98.00;;;;;;5072169;28;20453;-73
2023/02/04 13:02:34;;;;;;;6.00;1.50;;;10.80;98.00;;;;;;5072022;28;20492;-76
2023/02/04 13:05:01;;;;;;;8.03;2.00;;;11.30;98.00;;;;;;5072056;28;20483;-75